Time;durP1;ratioP1;P1;durP2;ratioP2;P2;SDS_P1;SDS_P2;PMS_P1;PMS_P2;Temp;Humidity;BMP_temperature;BMP_pressure;BME280_temperature;BME280_humidity;BME280_pressure;Samples;Min_cycle;Max_cycle;Signal;HPM_P1;HPM_P2
2022/06/17 00:01:16;;;;;;;9.63;5.40;;;19.60;99.90;;;;;;5051869;28;20041;-69
2022/06/17 00:03:43;;;;;;;6.88;4.60;;;19.60;99.90;;;;;;5053875;28;20051;-69
2022/06/17 00:06:10;;;;;;;7.35;4.05;;;19.60;99.90;;;;;;5052723;28;20052;-69
2022/06/17 00:08:40;;;;;;;6.13;3.88;;;19.60;99.90;;;;;;5052375;28;20063;-69
2022/06/17 00:11:16;;;;;;;6.72;4.55;;;19.60;99.90;;;;;;5051588;28;20056;-68
2022/06/17 00:13:43;;;;;;;6.35;4.43;;;19.70;99.90;;;;;;5052596;28;20048;-68
2022/06/17 00:16:15;;;;;;;9.85;4.90;;;19.60;99.90;;;;;;5051703;28;20472;-68
2022/06/17 00:18:42;;;;;;;7.43;4.53;;;19.60;99.90;;;;;;5052670;28;20053;-68
2022/06/17 00:21:37;;;;;;;10.52;4.72;;;19.60;99.90;;;;;;5051305;28;20076;-69
2022/06/17 00:24:14;;;;;;;5.78;3.88;;;19.70;99.90;;;;;;5052278;28;20388;-69
2022/06/17 00:26:41;;;;;;;6.70;4.65;;;19.60;99.90;;;;;;5051812;28;20045;-69
2022/06/17 00:29:16;;;;;;;6.68;3.92;;;19.70;99.90;;;;;;5051724;28;20072;-69
2022/06/17 00:31:43;;;;;;;6.53;4.70;;;19.70;99.90;;;;;;5052487;28;20041;-69
2022/06/17 00:34:10;;;;;;;6.40;4.50;;;19.70;99.90;;;;;;5052518;28;20041;-69
2022/06/17 00:36:37;;;;;;;7.75;4.55;;;19.60;99.90;;;;;;5052548;28;20472;-69
2022/06/17 00:39:10;;;;;;;10.57;4.82;;;19.60;99.90;;;;;;5051485;28;20052;-69
2022/06/17 00:41:37;;;;;;;6.72;3.95;;;19.60;99.90;;;;;;5051329;28;20476;-69
2022/06/17 00:44:14;;;;;;;6.03;4.45;;;19.50;99.90;;;;;;5052951;28;20492;-69
2022/06/17 00:46:48;;;;;;;7.38;3.78;;;19.50;99.90;;;;;;5055522;28;20056;-69
2022/06/17 00:49:40;;;;;;;5.65;4.70;;;19.50;99.90;;;;;;5055631;28;20103;-69
2022/06/17 00:52:15;;;;;;;8.55;4.28;;;19.40;99.90;;;;;;5052505;28;20045;-69
2022/06/17 00:54:45;;;;;;;9.52;4.80;;;19.40;99.90;;;;;;5055824;28;20067;-69
2022/06/17 00:57:23;;;;;;;6.43;4.22;;;19.30;99.90;;;;;;5054819;28;20060;-69
2022/06/17 01:00:09;;;;;;;9.18;4.45;;;19.30;99.90;;;;;;5055045;28;20037;-69
2022/06/17 01:02:40;;;;;;;6.85;4.00;;;19.20;99.90;;;;;;5055995;28;20041;-69
2022/06/17 01:05:07;;;;;;;6.30;4.72;;;19.20;99.90;;;;;;5055783;28;20048;-69
2022/06/17 01:07:38;;;;;;;5.97;3.53;;;19.20;99.90;;;;;;5054398;28;20055;-69
2022/06/17 01:10:11;;;;;;;6.57;4.03;;;19.20;99.90;;;;;;5054378;28;20052;-69
2022/06/17 01:12:49;;;;;;;7.68;3.40;;;19.20;99.90;;;;;;5055535;28;20041;-69
2022/06/17 01:15:21;;;;;;;6.15;4.25;;;19.10;99.90;;;;;;5054361;28;20391;-69
2022/06/17 01:17:49;;;;;;;9.18;3.88;;;19.10;99.90;;;;;;5054267;28;20045;-69
2022/06/17 01:20:16;;;;;;;4.53;3.80;;;19.20;99.90;;;;;;5054513;28;20056;-69
2022/06/17 01:22:48;;;;;;;4.70;3.25;;;19.20;99.90;;;;;;5037926;28;20045;-69
2022/06/17 01:25:25;;;;;;;4.60;3.35;;;19.20;99.90;;;;;;5054393;28;20051;-69
2022/06/17 01:27:56;;;;;;;6.70;3.92;;;19.20;99.90;;;;;;5055288;28;20044;-69
2022/06/17 01:30:28;;;;;;;4.50;3.28;;;19.20;99.90;;;;;;5055136;28;20580;-69
2022/06/17 01:32:56;;;;;;;8.05;3.38;;;19.20;99.90;;;;;;5055043;28;20049;-69
2022/06/17 01:35:25;;;;;;;5.93;3.97;;;19.10;99.90;;;;;;5054219;28;20045;-69
2022/06/17 01:37:52;;;;;;;6.75;3.63;;;19.10;99.90;;;;;;5055064;28;20051;-69
2022/06/17 01:40:19;;;;;;;7.38;4.07;;;19.00;99.90;;;;;;5053735;28;20044;-69
2022/06/17 01:42:46;;;;;;;5.85;3.60;;;19.00;99.90;;;;;;5054079;28;20075;-69
2022/06/17 01:45:13;;;;;;;5.43;3.58;;;18.90;99.90;;;;;;5054035;28;20045;-69
2022/06/17 01:47:41;;;;;;;6.03;3.60;;;18.90;99.90;;;;;;5053926;28;20067;-69
2022/06/17 01:50:16;;;;;;;4.88;3.88;;;18.90;99.90;;;;;;5037338;28;20048;-69
2022/06/17 01:52:53;;;;;;;8.30;4.47;;;18.90;99.90;;;;;;5054405;28;20045;-69
2022/06/17 01:55:28;;;;;;;5.22;4.03;;;18.90;99.90;;;;;;5053471;28;20063;-71
2022/06/17 01:57:58;;;;;;;5.07;3.70;;;18.80;99.90;;;;;;5053481;28;20047;-69
2022/06/17 02:00:26;;;;;;;7.70;4.70;;;18.80;99.90;;;;;;5037946;28;20051;-69
2022/06/17 02:03:05;;;;;;;7.07;3.80;;;18.80;99.90;;;;;;5053414;28;20368;-69
2022/06/17 02:05:36;;;;;;;6.43;3.72;;;18.70;99.90;;;;;;5054385;28;20041;-69
2022/06/17 02:08:04;;;;;;;5.25;3.90;;;18.70;99.90;;;;;;5053642;28;20041;-69
2022/06/17 02:10:33;;;;;;;5.35;3.88;;;18.70;99.90;;;;;;5053504;28;20057;-69
2022/06/17 02:13:01;;;;;;;5.93;3.13;;;18.70;99.90;;;;;;5053729;28;20380;-69
2022/06/17 02:15:28;;;;;;;5.43;3.53;;;18.70;99.90;;;;;;5053416;28;20043;-69
2022/06/17 02:17:55;;;;;;;4.20;3.50;;;18.70;99.90;;;;;;5052960;28;20040;-69
2022/06/17 02:20:22;;;;;;;6.05;3.53;;;18.70;99.90;;;;;;5054195;28;20408;-68
2022/06/17 02:22:49;;;;;;;6.53;3.55;;;18.60;99.90;;;;;;5053251;28;20041;-69
2022/06/17 02:25:19;;;;;;;6.53;3.95;;;18.60;99.90;;;;;;5053270;28;20049;-69
2022/06/17 02:27:47;;;;;;;7.53;3.92;;;18.50;99.90;;;;;;5053358;28;20041;-69
2022/06/17 02:30:14;;;;;;;6.35;3.92;;;18.50;99.90;;;;;;5052795;28;20041;-69
2022/06/17 02:32:41;;;;;;;5.65;4.07;;;18.40;99.90;;;;;;5052732;28;20544;-69
2022/06/17 02:35:27;;;;;;;8.27;4.57;;;18.40;99.90;;;;;;5052980;28;20037;-69
2022/06/17 02:37:53;;;;;;;11.18;4.20;;;18.40;99.90;;;;;;5054737;28;20374;-69
2022/06/17 02:40:25;;;;;;;7.53;3.90;;;18.30;99.90;;;;;;5052564;28;20045;-69
2022/06/17 02:42:52;;;;;;;6.03;4.10;;;18.30;99.90;;;;;;5052691;28;20041;-69
2022/06/17 02:45:22;;;;;;;5.03;3.60;;;18.20;99.90;;;;;;5053071;28;20041;-68
2022/06/17 02:47:49;;;;;;;7.25;4.32;;;18.30;99.90;;;;;;5037127;28;20068;-69
2022/06/17 02:50:22;;;;;;;6.82;4.10;;;18.20;99.90;;;;;;5054467;28;20061;-69
2022/06/17 02:52:49;;;;;;;6.45;3.67;;;18.10;99.90;;;;;;5053559;28;20044;-69
2022/06/17 02:55:31;;;;;;;9.30;4.57;;;18.10;99.90;;;;;;5052125;28;20048;-69
2022/06/17 02:58:21;;;;;;;7.07;4.30;;;18.00;99.90;;;;;;5053213;28;20049;-69
2022/06/17 03:00:48;;;;;;;7.00;3.88;;;17.90;99.90;;;;;;5053332;28;20041;-69
2022/06/17 03:03:15;;;;;;;6.07;4.18;;;17.80;99.90;;;;;;5053030;28;20068;-69
2022/06/17 03:05:43;;;;;;;7.43;4.45;;;17.70;99.90;;;;;;5052831;28;20124;-69
2022/06/17 03:08:23;;;;;;;5.18;4.05;;;17.70;99.90;;;;;;5052116;28;20047;-69
2022/06/17 03:10:52;;;;;;;8.35;4.07;;;17.60;99.90;;;;;;5035917;28;20052;-69
2022/06/17 03:13:23;;;;;;;6.23;4.30;;;17.60;99.90;;;;;;5052233;28;20055;-69
2022/06/17 03:15:52;;;;;;;6.53;4.15;;;17.60;99.90;;;;;;5052077;28;20274;-69
2022/06/17 03:18:19;;;;;;;6.67;3.93;;;17.60;99.90;;;;;;5053182;28;20378;-69
2022/06/17 03:20:46;;;;;;;7.15;4.50;;;17.60;99.90;;;;;;5051825;28;20048;-69
2022/06/17 03:23:16;;;;;;;4.85;3.42;;;17.60;99.90;;;;;;5051937;28;20037;-69
2022/06/17 03:26:04;;;;;;;4.75;3.95;;;17.60;99.90;;;;;;5052041;28;20052;-69
2022/06/17 03:28:34;;;;;;;6.40;4.03;;;17.50;99.90;;;;;;5035512;28;20049;-68
2022/06/17 03:31:29;;;;;;;6.75;4.05;;;17.50;99.90;;;;;;5053054;28;20401;-68
2022/06/17 03:33:59;;;;;;;4.30;3.63;;;17.40;99.90;;;;;;5049628;28;20084;-68
2022/06/17 03:36:32;;;;;;;7.07;4.40;;;17.30;99.90;;;;;;5052058;28;20362;-68
2022/06/17 03:39:00;;;;;;;6.63;3.97;;;17.30;99.90;;;;;;5054122;28;20045;-69
2022/06/17 03:41:35;;;;;;;4.88;3.65;;;17.20;99.90;;;;;;5052816;28;20045;-69
2022/06/17 03:44:07;;;;;;;6.45;4.05;;;17.20;99.90;;;;;;5052957;28;20052;-69
2022/06/17 03:46:43;;;;;;;5.78;4.28;;;17.20;99.90;;;;;;5052123;28;20041;-68
2022/06/17 03:49:40;;;;;;;9.27;4.05;;;17.20;99.90;;;;;;5052286;28;20080;-68
2022/06/17 03:52:22;;;;;;;4.90;4.38;;;17.20;99.90;;;;;;5053998;28;20041;-69
2022/06/17 03:54:49;;;;;;;9.77;4.40;;;17.20;99.90;;;;;;5052815;28;20059;-69
2022/06/17 03:57:16;;;;;;;5.50;4.93;;;17.20;99.90;;;;;;5052016;28;20063;-69
2022/06/17 03:59:45;;;;;;;7.15;4.82;;;17.20;99.90;;;;;;5051894;28;20488;-69
2022/06/17 04:02:13;;;;;;;6.13;5.10;;;17.10;99.90;;;;;;5051851;28;20472;-69
2022/06/17 04:04:42;;;;;;;5.18;4.68;;;17.10;99.90;;;;;;5052848;28;20041;-69
2022/06/17 04:07:11;;;;;;;6.13;4.50;;;17.00;99.90;;;;;;5051613;28;20090;-69
2022/06/17 04:09:40;;;;;;;8.47;4.93;;;17.00;99.90;;;;;;5052677;28;20048;-69
2022/06/17 04:12:14;;;;;;;6.72;4.35;;;17.00;99.90;;;;;;5052342;28;20273;-69
2022/06/17 04:14:57;;;;;;;7.68;4.35;;;17.10;99.90;;;;;;5053842;28;20037;-69
2022/06/17 04:17:29;;;;;;;4.85;3.65;;;17.10;99.90;;;;;;5052696;28;20453;-69
2022/06/17 04:20:24;;;;;;;6.68;3.67;;;17.10;99.90;;;;;;5055515;28;20049;-69
2022/06/17 04:22:52;;;;;;;6.40;3.75;;;17.10;99.90;;;;;;5057362;28;20373;-69
2022/06/17 04:25:28;;;;;;;4.35;3.58;;;17.10;99.90;;;;;;5056690;28;20358;-69
2022/06/17 04:27:56;;;;;;;6.47;3.80;;;17.00;99.90;;;;;;5056551;28;20056;-69
2022/06/17 04:30:24;;;;;;;7.32;4.72;;;17.00;99.90;;;;;;5055122;28;20049;-69
2022/06/17 04:33:09;;;;;;;4.77;4.27;;;17.00;99.90;;;;;;5055127;28;20048;-69
2022/06/17 04:35:36;;;;;;;5.07;4.20;;;17.00;99.90;;;;;;5055107;28;20738;-69
2022/06/17 04:38:04;;;;;;;5.68;3.97;;;17.10;99.90;;;;;;5038566;28;20504;-69
2022/06/17 04:40:41;;;;;;;5.65;3.97;;;17.10;99.90;;;;;;5039556;28;20056;-69
2022/06/17 04:43:36;;;;;;;7.10;4.18;;;17.20;99.90;;;;;;5056288;28;20040;-69
2022/06/17 04:46:13;;;;;;;6.53;4.05;;;17.30;99.90;;;;;;5053919;28;20400;-69
2022/06/17 04:48:40;;;;;;;6.18;4.20;;;17.50;99.90;;;;;;5055719;28;20365;-69
2022/06/17 04:51:08;;;;;;;9.10;4.97;;;17.50;99.90;;;;;;5054722;28;20480;-69
2022/06/17 04:53:38;;;;;;;5.18;4.10;;;17.70;99.90;;;;;;5054993;28;20048;-69
2022/06/17 04:56:06;;;;;;;6.70;4.10;;;17.90;99.90;;;;;;5055109;28;20041;-69
2022/06/17 04:58:33;;;;;;;7.63;4.30;;;18.10;99.90;;;;;;5055410;28;20052;-69
2022/06/17 05:01:00;;;;;;;7.28;5.10;;;18.20;99.90;;;;;;5056726;28;20373;-69
2022/06/17 05:03:28;;;;;;;4.95;3.80;;;18.50;99.90;;;;;;5055551;28;20041;-69
2022/06/17 05:05:55;;;;;;;6.03;3.53;;;18.70;99.90;;;;;;5054533;28;20451;-69
2022/06/17 05:08:25;;;;;;;7.72;3.70;;;19.10;99.90;;;;;;5054798;28;20049;-69
2022/06/17 05:11:03;;;;;;;5.90;3.13;;;19.50;99.90;;;;;;5054435;28;20419;-69
2022/06/17 05:14:05;;;;;;;4.10;3.53;;;19.90;99.90;;;;;;5054549;28;20049;-69
2022/06/17 05:16:32;;;;;;;5.05;3.25;;;20.30;99.90;;;;;;5036314;28;20055;-69
2022/06/17 05:18:59;;;;;;;4.57;3.13;;;20.60;99.90;;;;;;5055413;28;20048;-69
2022/06/17 05:21:26;;;;;;;7.93;2.92;;;20.90;99.90;;;;;;5056388;28;20051;-69
2022/06/17 05:23:56;;;;;;;6.35;3.38;;;21.20;98.80;;;;;;5054432;28;20385;-69
2022/06/17 05:26:22;;;;;;;5.18;3.00;;;21.40;96.90;;;;;;5054149;28;20041;-69
2022/06/17 05:28:49;;;;;;;3.67;2.55;;;21.50;97.90;;;;;;5055605;28;20043;-69
2022/06/17 05:31:18;;;;;;;4.65;2.95;;;21.50;96.80;;;;;;5053929;28;20055;-69
2022/06/17 05:33:48;;;;;;;4.20;2.70;;;21.50;97.00;;;;;;5054159;28;20044;-69
2022/06/17 05:36:15;;;;;;;3.88;2.83;;;21.50;97.70;;;;;;5055359;28;20048;-69
2022/06/17 05:38:42;;;;;;;6.18;3.72;;;21.50;97.70;;;;;;5054933;28;20036;-69
2022/06/17 05:41:17;;;;;;;5.10;2.67;;;21.60;94.20;;;;;;5054541;28;20052;-68
2022/06/17 05:43:44;;;;;;;5.35;3.40;;;21.60;94.30;;;;;;5054958;28;20139;-68
2022/06/17 05:46:11;;;;;;;4.78;3.17;;;21.70;95.30;;;;;;5055377;28;20053;-69
2022/06/17 05:48:39;;;;;;;5.20;3.13;;;21.80;93.20;;;;;;5054166;28;20055;-69
2022/06/17 05:51:06;;;;;;;6.72;3.20;;;22.00;92.10;;;;;;5054936;28;20488;-69
2022/06/17 05:53:33;;;;;;;4.38;3.28;;;22.20;92.80;;;;;;5053889;28;20041;-69
2022/06/17 05:56:00;;;;;;;5.82;3.40;;;22.30;91.50;;;;;;5054928;28;20052;-69
2022/06/17 05:58:27;;;;;;;6.20;3.08;;;22.40;91.50;;;;;;5037847;28;20488;-69
2022/06/17 06:00:54;;;;;;;6.97;3.35;;;22.40;91.80;;;;;;5053575;28;20045;-69
2022/06/17 06:03:23;;;;;;;3.55;3.00;;;22.40;90.40;;;;;;5053718;28;20064;-69
2022/06/17 06:05:50;;;;;;;4.50;2.97;;;22.50;89.70;;;;;;5055154;28;20400;-69
2022/06/17 06:08:17;;;;;;;5.35;3.17;;;22.70;87.70;;;;;;5053108;28;20123;-69
2022/06/17 06:10:44;;;;;;;6.70;3.30;;;22.80;84.30;;;;;;5054250;28;20052;-69
2022/06/17 06:13:16;;;;;;;5.57;3.08;;;22.90;85.60;;;;;;5054482;28;20048;-69
2022/06/17 06:15:45;;;;;;;6.38;3.25;;;23.00;83.10;;;;;;5052916;28;20040;-69
2022/06/17 06:18:14;;;;;;;5.90;3.08;;;23.20;84.00;;;;;;5053039;28;20044;-65
2022/06/17 06:20:41;;;;;;;133.70;117.28;;;23.30;83.90;;;;;;5052899;28;20044;-64
2022/06/17 06:23:08;;;;;;;31.60;28.25;;;23.40;84.00;;;;;;5053153;28;20047;-63
2022/06/17 06:25:35;;;;;;;16.75;9.38;;;23.50;85.60;;;;;;5053939;28;20428;-66
2022/06/17 06:28:18;;;;;;;6.90;4.75;;;23.70;85.70;;;;;;5037156;28;20045;-69
2022/06/17 06:30:54;;;;;;;4.88;3.92;;;23.90;84.20;;;;;;5052851;28;20044;-70
2022/06/17 06:33:21;;;;;;;7.03;3.20;;;23.90;83.80;;;;;;5053858;28;20048;-69
2022/06/17 06:35:48;;;;;;;7.15;3.63;;;24.00;83.40;;;;;;5052787;28;20041;-73
2022/06/17 06:38:15;;;;;;;19.42;17.48;;;24.10;85.60;;;;;;5053782;28;20048;-73
2022/06/17 06:40:42;;;;;;;14.05;11.20;;;24.30;86.90;;;;;;5052671;28;20044;-69
2022/06/17 06:43:13;;;;;;;9.00;5.43;;;24.40;85.60;;;;;;5052710;28;20037;-70
2022/06/17 06:45:44;;;;;;;6.00;3.53;;;24.60;86.20;;;;;;5053565;28;20041;-70
2022/06/17 06:48:11;;;;;;;9.82;3.90;;;24.70;85.90;;;;;;5052837;28;20075;-69
2022/06/17 06:50:39;;;;;;;6.63;3.70;;;24.80;84.90;;;;;;5052626;28;20054;-66
2022/06/17 06:53:06;;;;;;;6.35;4.32;;;24.80;85.00;;;;;;5052741;28;20045;-67
2022/06/17 06:55:34;;;;;;;7.07;4.78;;;24.70;86.90;;;;;;5052715;28;20044;-65
2022/06/17 06:58:23;;;;;;;6.00;3.97;;;24.60;85.80;;;;;;5052657;28;20045;-65
2022/06/17 07:00:54;;;;;;;11.60;4.30;;;24.40;86.10;;;;;;5054110;28;20049;-65
2022/06/17 07:03:21;;;;;;;6.15;3.90;;;24.30;86.20;;;;;;5036906;28;20131;-65
2022/06/17 07:06:00;;;;;;;7.28;4.13;;;24.10;86.80;;;;;;5053325;28;20049;-65
2022/06/17 07:08:30;;;;;;;6.32;3.88;;;24.00;87.70;;;;;;5052559;28;20140;-65
2022/06/17 07:10:59;;;;;;;6.95;4.40;;;24.00;88.50;;;;;;5053363;28;20502;-65
2022/06/17 07:13:27;;;;;;;11.25;4.80;;;23.90;88.50;;;;;;5035943;28;20072;-65
2022/06/17 07:15:55;;;;;;;12.43;4.13;;;23.90;90.00;;;;;;5052054;28;20492;-64
2022/06/17 07:18:21;;;;;;;7.60;4.40;;;24.00;89.90;;;;;;5053988;28;20041;-64
2022/06/17 07:20:51;;;;;;;5.88;4.03;;;24.10;90.20;;;;;;5053989;28;20041;-65
2022/06/17 07:23:30;;;;;;;8.85;3.85;;;24.20;89.90;;;;;;5052269;28;20047;-64
2022/06/17 07:25:57;;;;;;;;;;;24.20;90.20;;;;;;5054775;28;20044;-66
2022/06/17 07:28:25;;;;;;;5.45;3.85;;;24.30;90.30;;;;;;5052971;28;20357;-64
2022/06/17 07:30:53;;;;;;;9.00;4.07;;;24.30;90.40;;;;;;5052634;28;20045;-63
2022/06/17 07:33:21;;;;;;;7.03;5.20;;;24.40;90.10;;;;;;5051848;28;20041;-63
2022/06/17 07:35:50;;;;;;;7.32;4.85;;;24.50;90.20;;;;;;5053005;28;20420;-71
2022/06/17 07:41:05;;;;;;;10.55;4.97;;;24.70;90.50;;;;;;5053270;28;20087;-68
2022/06/17 07:43:32;;;;;;;7.43;4.32;;;24.80;90.60;;;;;;5053979;28;20354;-70
2022/06/17 07:45:59;;;;;;;8.68;4.15;;;24.80;90.60;;;;;;5035607;28;20047;-70
2022/06/17 07:48:27;;;;;;;11.45;5.57;;;24.80;90.80;;;;;;5052029;28;20049;-69
2022/06/17 07:50:58;;;;;;;6.55;4.55;;;24.70;90.30;;;;;;5053228;28;20048;-69
2022/06/17 07:53:29;;;;;;;6.95;4.28;;;24.70;90.50;;;;;;5052666;28;20472;-71
2022/06/17 07:55:58;;;;;;;11.80;4.95;;;24.70;90.80;;;;;;5055692;28;20060;-73
2022/06/17 07:58:25;;;;;;;;;;;24.70;91.10;;;;;;5056432;28;20056;-62
2022/06/17 08:00:52;;;;;;;7.20;4.35;;;24.80;91.80;;;;;;5057486;28;19917;-68
2022/06/17 08:03:19;;;;;;;7.55;5.18;;;24.80;91.80;;;;;;5039822;28;20051;-64
2022/06/17 08:05:53;;;;;;;8.10;4.82;;;24.90;91.30;;;;;;5055541;28;20045;-65
2022/06/17 08:08:21;;;;;;;5.85;4.07;;;25.00;90.30;;;;;;5039234;28;20048;-73
2022/06/17 08:10:59;;;;;;;8.48;4.78;;;25.10;90.60;;;;;;5056031;28;20364;-73
2022/06/17 08:13:26;;;;;;;10.27;3.50;;;25.30;90.20;;;;;;5038929;28;20045;-73
2022/06/17 08:15:54;;;;;;;6.53;3.45;;;25.50;90.20;;;;;;5056557;28;20048;-73
2022/06/17 08:18:21;;;;;;;;;;;25.70;87.20;;;;;;5057119;28;20043;-73
2022/06/17 08:20:48;;;;;;;6.10;3.67;;;25.80;82.10;;;;;;5056387;28;19916;-73
2022/06/17 08:23:15;;;;;;;7.88;3.20;;;26.10;84.50;;;;;;5056260;28;20048;-73
2022/06/17 08:25:42;;;;;;;7.15;4.15;;;26.20;81.30;;;;;;5055090;28;20048;-73
2022/06/17 08:28:10;;;;;;;12.27;4.07;;;26.40;79.80;;;;;;5055280;28;20083;-73
2022/06/17 08:30:43;;;;;;;4.80;2.72;;;26.60;80.30;;;;;;5055697;28;20056;-73
2022/06/17 08:33:11;;;;;;;6.03;3.00;;;26.80;78.40;;;;;;5039097;28;20044;-74
2022/06/17 08:36:01;;;;;;;5.93;2.65;;;27.00;76.80;;;;;;5057846;28;20091;-73
2022/06/17 08:38:30;;;;;;;5.47;3.30;;;27.10;74.20;;;;;;5056297;28;20488;-73
2022/06/17 08:41:25;;;;;;;4.53;2.83;;;27.10;73.80;;;;;;5055654;28;20056;-75
2022/06/17 08:44:32;;;;;;;5.50;2.78;;;27.10;73.70;;;;;;5041006;28;20057;-74
2022/06/17 08:47:11;;;;;;;3.25;2.65;;;27.20;72.60;;;;;;5051424;28;20079;-75
2022/06/17 08:50:11;;;;;;;6.03;2.50;;;27.20;72.90;;;;;;5055008;28;20052;-73
2022/06/17 08:53:11;;;;;;;5.18;2.50;;;27.20;72.60;;;;;;5055077;28;20052;-74
2022/06/17 08:55:54;;;;;;;15.13;3.08;;;27.40;71.70;;;;;;5055595;28;20048;-73
2022/06/17 08:58:36;;;;;;;4.03;2.33;;;27.50;73.50;;;;;;5037571;28;20045;-74
2022/06/17 09:01:22;;;;;;;7.32;2.88;;;27.70;72.00;;;;;;5054454;28;20369;-73
2022/06/17 09:04:00;;;;;;;7.45;3.00;;;27.90;70.90;;;;;;5053808;28;20044;-74
2022/06/17 09:06:49;;;;;;;4.43;2.58;;;28.00;69.70;;;;;;5054786;28;20037;-73
2022/06/17 09:09:28;;;;;;;5.25;2.83;;;28.00;69.70;;;;;;5053520;28;20055;-73
2022/06/17 09:12:18;;;;;;;6.63;3.28;;;28.00;70.20;;;;;;5055322;28;20055;-73
2022/06/17 09:14:57;;;;;;;5.68;2.80;;;28.10;71.10;;;;;;5051552;28;20453;-74
2022/06/17 09:17:27;;;;;;;3.80;2.63;;;28.30;71.90;;;;;;5053344;28;20047;-73
2022/06/17 09:19:58;;;;;;;5.68;3.08;;;28.30;70.40;;;;;;5055031;28;20420;-73
2022/06/17 09:22:27;;;;;;;6.03;3.42;;;28.30;69.40;;;;;;5053807;28;20041;-74
2022/06/17 09:24:55;;;;;;;7.18;3.10;;;28.40;69.90;;;;;;5036985;28;20380;-74
2022/06/17 09:27:28;;;;;;;5.53;3.10;;;28.40;70.70;;;;;;5053499;28;20045;-73
2022/06/17 09:30:00;;;;;;;4.68;3.22;;;28.50;69.40;;;;;;5054935;28;20041;-74
2022/06/17 09:32:36;;;;;;;5.03;2.97;;;28.50;70.00;;;;;;5053055;28;20059;-74
2022/06/17 09:35:07;;;;;;;5.05;2.90;;;28.50;71.50;;;;;;5052887;28;20047;-74
2022/06/17 09:37:49;;;;;;;7.38;3.65;;;28.40;70.80;;;;;;5055065;28;20049;-74
2022/06/17 09:40:29;;;;;;;6.07;3.35;;;28.30;71.40;;;;;;5055043;28;20048;-74
2022/06/17 09:42:58;;;;;;;6.57;3.75;;;28.30;72.10;;;;;;5053771;28;20056;-74
2022/06/17 09:45:33;;;;;;;6.78;3.92;;;28.40;71.90;;;;;;5053660;28;20040;-76
2022/06/17 09:48:08;;;;;;;7.20;3.95;;;28.50;73.20;;;;;;5053523;28;20483;-74
2022/06/17 09:50:42;;;;;;;6.93;3.10;;;28.60;73.30;;;;;;5054983;28;20064;-74
2022/06/17 09:53:20;;;;;;;7.43;2.95;;;28.70;72.10;;;;;;5053472;28;20128;-74
2022/06/17 09:55:52;;;;;;;4.57;3.23;;;28.70;71.60;;;;;;4995956;28;1682691;-74
2022/06/17 09:58:28;;;;;;;8.48;3.63;;;28.80;71.70;;;;;;5054676;28;20369;-74
2022/06/17 10:00:56;;;;;;;4.13;3.05;;;29.00;71.90;;;;;;5054340;28;20464;-75
2022/06/17 10:03:28;;;;;;;8.75;3.08;;;29.10;71.80;;;;;;5053695;28;20041;-75
2022/06/17 10:05:59;;;;;;;4.65;2.97;;;29.30;70.70;;;;;;5053457;28;20051;-74
2022/06/17 10:08:35;;;;;;;7.53;4.90;;;29.40;70.50;;;;;;5054591;28;20041;-74
2022/06/17 10:11:11;;;;;;;6.20;3.10;;;29.50;69.00;;;;;;5056104;28;20392;-75
2022/06/17 10:14:13;;;;;;;4.75;2.78;;;29.60;68.20;;;;;;5054689;28;20094;-74
2022/06/17 10:20:18;;;;;;;4.90;2.60;;;29.80;65.90;;;;;;5034829;28;20044;-75
2022/06/17 10:22:55;;;;;;;7.22;2.80;;;30.00;65.80;;;;;;5053757;28;20049;-75
2022/06/17 10:25:24;;;;;;;3.80;2.42;;;30.00;65.70;;;;;;5053919;28;20048;-74
2022/06/17 10:28:06;;;;;;;4.70;2.80;;;30.10;64.50;;;;;;5053666;28;20045;-74
2022/06/17 10:30:49;;;;;;;6.07;2.85;;;30.20;63.40;;;;;;5054982;28;20051;-74
2022/06/17 10:33:16;;;;;;;7.57;2.80;;;30.20;64.30;;;;;;5054925;28;20049;-74
2022/06/17 10:35:44;;;;;;;7.28;2.50;;;30.10;63.20;;;;;;5053100;28;20123;-74
2022/06/17 10:38:26;;;;;;;11.85;4.22;;;30.00;62.90;;;;;;5054018;28;20469;-74
2022/06/17 10:40:53;;;;;;;5.97;2.90;;;30.00;63.80;;;;;;5052685;28;20037;-74
2022/06/17 10:43:31;;;;;;;5.30;2.50;;;30.00;64.20;;;;;;5054861;28;20045;-74
2022/06/17 10:45:58;;;;;;;6.93;3.28;;;30.10;63.90;;;;;;5054458;28;20049;-74
2022/06/17 10:48:25;;;;;;;5.75;3.10;;;30.20;65.30;;;;;;5052900;28;20045;-76
2022/06/17 10:50:52;;;;;;;4.60;2.80;;;30.40;64.60;;;;;;5053703;28;20040;-73
2022/06/17 10:53:31;;;;;;;31.08;25.80;;;30.60;64.20;;;;;;5053711;28;20045;-79
2022/06/17 10:56:00;;;;;;;9.77;6.10;;;30.60;63.30;;;;;;5053690;28;20055;-77
2022/06/17 10:58:33;;;;;;;5.70;3.22;;;30.60;62.60;;;;;;5052486;28;20052;-75
2022/06/17 11:01:02;;;;;;;9.23;3.97;;;30.60;62.00;;;;;;5053251;28;20045;-73
2022/06/17 11:03:33;;;;;;;6.50;3.42;;;30.60;62.70;;;;;;5053442;28;20044;-76
2022/06/17 11:06:20;;;;;;;6.25;2.80;;;30.50;62.80;;;;;;5052245;28;20497;-78
2022/06/17 11:08:58;;;;;;;6.18;2.70;;;30.40;61.70;;;;;;5052924;28;20041;-76
2022/06/17 11:14:37;;;;;;;4.40;2.72;;;30.30;61.90;;;;;;5041484;28;20041;-74
2022/06/17 11:17:13;;;;;;;8.43;2.65;;;30.40;62.50;;;;;;5054207;28;20047;-74
2022/06/17 11:19:40;;;;;;;5.00;2.67;;;30.50;62.30;;;;;;5052070;28;20052;-67
2022/06/17 11:22:16;;;;;;;6.28;3.25;;;30.60;62.30;;;;;;5053456;28;20053;-76
2022/06/17 11:24:43;;;;;;;5.93;2.65;;;30.40;62.30;;;;;;5052976;28;20084;-74
2022/06/17 11:27:33;;;;;;;4.50;2.65;;;30.50;61.20;;;;;;5035408;28;20045;-73
2022/06/17 11:30:20;;;;;;;5.28;2.22;;;30.60;61.40;;;;;;5052149;28;20396;-78
2022/06/17 11:32:47;;;;;;;4.22;2.25;;;30.70;60.00;;;;;;5053108;28;20091;-78
2022/06/17 11:35:38;;;;;;;3.30;2.20;;;30.70;61.60;;;;;;5052181;28;20067;-67
2022/06/17 11:38:11;;;;;;;5.82;2.30;;;30.80;60.30;;;;;;5053109;28;20464;-69
2022/06/17 11:41:00;;;;;;;4.40;2.40;;;30.80;59.80;;;;;;5051877;28;20041;-68
2022/06/17 11:43:35;;;;;;;10.68;3.03;;;30.80;60.80;;;;;;5051664;28;20037;-69
2022/06/17 11:46:10;;;;;;;5.60;2.45;;;31.00;59.30;;;;;;5052738;28;20067;-70
2022/06/17 11:48:52;;;;;;;10.18;4.88;;;31.00;59.00;;;;;;5052057;28;20056;-69
2022/06/17 11:51:30;;;;;;;52.13;47.47;;;31.00;59.10;;;;;;5053060;28;20045;-69
2022/06/17 11:54:08;;;;;;;10.77;7.97;;;31.00;59.90;;;;;;5052906;28;20041;-69
2022/06/17 11:56:39;;;;;;;;;;;31.10;60.20;;;;;;5052185;28;20056;-71
2022/06/17 11:59:14;;;;;;;8.85;3.92;;;31.10;61.00;;;;;;5053122;28;19917;-71
2022/06/17 12:01:42;;;;;;;7.38;3.75;;;31.20;59.30;;;;;;5051234;28;20131;-69
2022/06/17 12:04:32;;;;;;;5.35;2.75;;;31.30;60.30;;;;;;5051767;28;20041;-69
2022/06/17 12:06:59;;;;;;;7.90;3.78;;;31.30;59.70;;;;;;5051892;28;20044;-70
2022/06/17 12:09:28;;;;;;;15.57;4.45;;;31.30;60.30;;;;;;5052224;28;20376;-70
2022/06/17 12:11:56;;;;;;;10.57;3.72;;;31.30;60.10;;;;;;5052967;28;20048;-69
2022/06/17 12:14:56;;;;;;;6.20;3.30;;;31.20;60.30;;;;;;5052070;28;20056;-69
2022/06/17 12:17:23;;;;;;;6.45;3.75;;;31.30;63.10;;;;;;5052227;28;20045;-69
2022/06/17 12:19:52;;;;;;;7.57;3.30;;;31.40;61.50;;;;;;5051367;28;20127;-63
2022/06/17 12:22:19;;;;;;;6.70;3.33;;;31.30;60.20;;;;;;5052686;28;20122;-69
2022/06/17 12:25:07;;;;;;;5.88;3.03;;;31.20;59.40;;;;;;5052587;28;20045;-69
2022/06/17 12:27:44;;;;;;;7.05;2.53;;;31.20;62.80;;;;;;5052478;28;20041;-69
2022/06/17 12:30:45;;;;;;;7.15;3.63;;;31.30;61.50;;;;;;5051713;28;20469;-68
2022/06/17 12:33:35;;;;;;;7.03;3.20;;;31.40;61.00;;;;;;5052246;28;20053;-68
2022/06/17 12:36:07;;;;;;;10.52;2.35;;;31.30;59.70;;;;;;5051398;28;20041;-69
2022/06/17 12:38:42;;;;;;;5.75;3.30;;;31.40;57.90;;;;;;5051274;28;20040;-63
2022/06/17 12:41:40;;;;;;;8.60;2.60;;;31.30;58.60;;;;;;5054687;28;20045;-70
2022/06/17 12:45:02;;;;;;;5.90;2.65;;;31.20;57.30;;;;;;5056281;28;20048;-70
2022/06/17 12:47:45;;;;;;;8.48;2.80;;;31.30;57.70;;;;;;5033794;28;20063;-68
2022/06/17 12:53:14;;;;;;;4.90;2.40;;;31.40;57.40;;;;;;5055821;28;20044;-70
2022/06/17 12:56:08;;;;;;;7.28;2.80;;;31.40;59.10;;;;;;5056809;28;20048;-69
2022/06/17 12:59:06;;;;;;;7.60;2.63;;;31.40;57.10;;;;;;5039150;28;20041;-70
2022/06/17 13:01:44;;;;;;;6.43;3.05;;;31.40;58.90;;;;;;5055834;28;20055;-71
2022/06/17 13:04:21;;;;;;;4.68;2.30;;;31.50;57.20;;;;;;5055874;28;20118;-70
2022/06/17 13:07:08;;;;;;;4.72;3.08;;;31.50;57.30;;;;;;5056256;28;20385;-71
2022/06/17 13:09:44;;;;;;;6.75;2.65;;;31.60;58.20;;;;;;5056789;28;20041;-70
2022/06/17 13:12:17;;;;;;;3.63;2.00;;;31.60;57.50;;;;;;5038303;28;20049;-70
2022/06/17 13:15:07;;;;;;;4.50;2.40;;;31.70;57.20;;;;;;5055719;28;20056;-70
2022/06/17 13:17:46;;;;;;;4.13;2.58;;;31.60;58.00;;;;;;5055519;28;20380;-66
2022/06/17 13:20:43;;;;;;;3.85;2.38;;;31.60;58.20;;;;;;5054407;28;20481;-66
2022/06/17 13:23:29;;;;;;;5.07;2.70;;;31.70;58.40;;;;;;5040285;28;20041;-66
2022/06/17 13:26:23;;;;;;;6.78;3.70;;;31.80;58.40;;;;;;5054345;28;20446;-65
2022/06/17 13:28:55;;;;;;;5.63;3.08;;;31.70;58.30;;;;;;5054609;28;20041;-65
2022/06/17 13:31:25;;;;;;;5.05;2.67;;;31.70;57.90;;;;;;5054411;28;20043;-66